Main page
METAR-TAF:

METAR-TAF

Airports :

Camp Mabry

Austin, Texas, United States

latitude: 30-19N, longitude: 097-46W, elevation: 656 ft

Current weather observation

The report was made 59 minutes ago, at 17:51 UTC
Wind 8 mph from the East/Southeast
Temperature 93°F
Humidity 41%
Pressure 29.98 in. Hg
Visibility: 10 miles
Few clouds at a height of 7000 ft

METAR: KATT 141751Z AUTO 11007KT 10SM FEW070 34/19 A2998 RMK AO2 SLP137 T03390194 10344 20256 58002

Time: 13:50 (18:50 UTC)


TAF: missing

Weather observations and forecasts of more than 4000 airports (METAR and TAF reports).

The available stations are represented by yellow and red dots on the map.

Hover mouse over dot to see the name of the station.

Then click to see weather observations and forecasts.

To change the map : click on the green buttons with a black cross to zoom in, on the green button with a dash to zoom out, or on the green arrows for adjacent maps.


METAR-TAF: